Archival Weather

Chicago O'Hare International

Chicago, Illinois (KORD)

Report from: Tuesday, August 16, 2022 3:51 AM CDT
Current time: Sunday, February 25, 2024 4:07 PM CST

Current weather – Weather history – Daily summaries
Weather forecast

Temperature17.2°C (63.0°F)
Dew point15.6°C (60.1°F)
Winds 5 kts (2.6 m/s, 5.8 mph) North (350°)
Visibility10 mi. (16.1 km)
Clouds Few clouds 1,300 ft. (396 m)
Few clouds 25,000 ft. (7,620 m)
Altimeter30.07 in.Hg (1018 mB)
Relative humidity90 %
Density altitude349 ft. (106 m)
Sea-level pressure101.8 kPa (1018 mB, 30.06 in.Hg)
Remarks Automated weather observing station with precipitation discriminator
Pressure falling, then rising
Flight conditions Visual Meteorological Conditions
Raw dataKORD 160851Z 35005KT 10SM FEW013 FEW250 17/16 A3007 RMK AO2 SLP178 T01720156 55001
An error has occurred. This application may no longer respond until reloaded. Reload 🗙